Hot Springs, VA

4:16 AM EDT on August 18, 2017 (GMT -0400)
Ingalls

Weather History for KHSP - July, 2013

Change the Weather History Date:

Sunday, July 28, 2013

  Actual Average Record
Temperature  
Mean Temperature 64 °F -  
Max Temperature 71 °F 74 °F 87 °F (1997)
Min Temperature 57 °F 59 °F 51 °F (2014)
Degree Days  
Heating Degree Days 1    
Growing Degree Days 14 (Base 50)    
Moisture  
Dew Point 59 °F    
Average Humidity 87    
Maximum Humidity 100    
Minimum Humidity 64    
Precipitation  
Precipitation 0.03 in - - ()
Sea Level Pressure  
Sea Level Pressure 30.11 in    
Wind  
Wind Speed 9 mph (West)    
Max Wind Speed 15 mph    
Max Gust Speed 20 mph    
Visibility 8 miles    
Events Fog , Rain    
Averages and records for this station are not official NWS values.
T = Trace of Precipitation, MM = Missing Value Source: NWS Daily Summary

Daily Weather History Graph

Daily Weather History Graph

Search for Another Location

Airport or City:

Trip Planner

Search our weather history database for the weather conditions in past years. The results will help you decide how hot, cold, wet, or windy it might be!

Date:

Astronomy

Jul. 28, 2013 Rise Set
Actual Time 6:19 AM EDT 8:31 PM EDT
Civil Twilight 5:49 AM EDT 9:01 PM EDT
Nautical Twilight 5:13 AM EDT 9:37 PM EDT
Astronomical Twilight 4:34 AM EDT 10:16 PM EDT
Moon No Moon Rise 12:52 PM EDT (7/28)
Length of Visible Light 15h 11m
Length of Day
14h 12m
Waning Gibbous, 61% of the Moon is Illuminated
Jul 28
Waning Gibbous
Jul 29
Last Quarter
Aug 6
New
Aug 14
First Quarter
Aug 20
Full

Hourly Weather History & Observations

Time (EDT) Temp. Dew Point Humidity Pressure Visibility Wind Dir Wind Speed Gust Speed Precip Events Conditions
12:15 AM 60.8 °F 60.8 °F 100% 30.09 in 0.2 mi South 5.8 mph - N/A Fog Fog
12:35 AM 60.8 °F 60.8 °F 100% 30.08 in 10.0 mi SSW 5.8 mph - N/A   Overcast
12:55 AM 60.8 °F 60.8 °F 100% 30.07 in 10.0 mi South 6.9 mph - N/A   Overcast
1:15 AM 60.8 °F 60.8 °F 100% 30.08 in 4.0 mi South 4.6 mph - N/A   Overcast
1:35 AM 60.8 °F 60.8 °F 100% 30.07 in 0.2 mi SSW 4.6 mph - N/A Fog Fog
1:55 AM 60.8 °F 60.8 °F 100% 30.07 in 0.2 mi SW 4.6 mph - N/A Fog Fog
2:15 AM 60.8 °F 60.8 °F 100% 30.07 in 7.0 mi SSW 4.6 mph - N/A   Overcast
2:35 AM 60.8 °F 60.8 °F 100% 30.06 in 1.5 mi SW 8.1 mph - N/A   Overcast
2:55 AM 60.8 °F 59.0 °F 94% 30.06 in 10.0 mi SW 10.4 mph - N/A   Overcast
3:15 AM 60.8 °F 59.0 °F 94% 30.06 in 10.0 mi WSW 13.8 mph - N/A   Overcast
3:35 AM 62.6 °F 60.8 °F 94% 30.05 in 10.0 mi SW 12.7 mph 17.3 mph N/A   Overcast
3:55 AM 62.6 °F 60.8 °F 94% 30.06 in 10.0 mi SSW 8.1 mph - N/A   Overcast
4:15 AM 60.8 °F 60.8 °F 100% 30.06 in 10.0 mi WSW 9.2 mph - N/A   Overcast
4:35 AM 60.8 °F 60.8 °F 100% 30.06 in 10.0 mi WSW 11.5 mph - N/A   Overcast
4:55 AM 60.8 °F 60.8 °F 100% 30.06 in 10.0 mi WSW 9.2 mph - N/A   Overcast
5:15 AM 60.8 °F 60.8 °F 100% 30.06 in 7.0 mi WSW 11.5 mph - N/A   Overcast
5:35 AM 60.8 °F 60.8 °F 100% 30.07 in 3.0 mi West 10.4 mph - N/A   Overcast
5:55 AM 60.8 °F 60.8 °F 100% 30.08 in 0.2 mi West 9.2 mph - N/A Fog Fog
6:15 AM 60.8 °F 60.8 °F 100% 30.08 in 0.2 mi West 8.1 mph - N/A Rain Rain
6:35 AM 60.8 °F 60.8 °F 100% 30.09 in 0.5 mi West 8.1 mph - N/A   Light Drizzle
6:55 AM 60.8 °F 60.8 °F 100% 30.09 in 0.2 mi West 8.1 mph - 0.01 in   Drizzle
7:15 AM 60.8 °F 60.8 °F 100% 30.09 in 0.2 mi West 8.1 mph - 0.01 in   Drizzle
7:35 AM 60.8 °F 60.8 °F 100% 30.09 in 4.0 mi West 8.1 mph - 0.01 in   Overcast
7:55 AM 60.8 °F 60.8 °F 100% 30.10 in 0.2 mi West 8.1 mph - N/A Fog Fog
8:15 AM 60.8 °F 60.8 °F 100% 30.10 in 7.0 mi West 9.2 mph - N/A   Overcast
8:35 AM 60.8 °F 60.8 °F 100% 30.11 in 0.2 mi West 11.5 mph - N/A Fog Fog
8:55 AM 60.8 °F 60.8 °F 100% 30.11 in 0.2 mi West 13.8 mph 18.4 mph N/A Rain Rain
9:15 AM 59.0 °F 59.0 °F 100% 30.12 in 0.2 mi West 11.5 mph - 0.01 in Rain Light Rain
9:35 AM 59.0 °F 59.0 °F 100% 30.11 in 7.0 mi West 8.1 mph - 0.01 in   Overcast
9:55 AM 59.0 °F 57.2 °F 94% 30.11 in 10.0 mi West 6.9 mph - N/A   Scattered Clouds
10:15 AM 60.8 °F 57.2 °F 88% 30.11 in 10.0 mi West 8.1 mph - N/A   Clear
10:35 AM 62.6 °F 60.8 °F 94% 30.11 in 10.0 mi West 9.2 mph - N/A   Clear
10:55 AM 64.4 °F 59.0 °F 83% 30.11 in 10.0 mi West 9.2 mph - N/A   Clear
11:15 AM 64.4 °F 57.2 °F 77% 30.12 in 10.0 mi West 11.5 mph 16.1 mph N/A   Clear
11:35 AM 64.4 °F 59.0 °F 83% 30.12 in 10.0 mi WNW 10.4 mph 16.1 mph N/A   Clear
11:55 AM 64.4 °F 60.8 °F 88% 30.12 in 10.0 mi West 10.4 mph - N/A   Scattered Clouds
12:15 PM 66.2 °F 60.8 °F 83% 30.12 in 10.0 mi West 10.4 mph - N/A   Mostly Cloudy
12:35 PM 66.2 °F 60.8 °F 83% 30.12 in 10.0 mi West 11.5 mph 17.3 mph N/A   Scattered Clouds
12:55 PM 68.0 °F 60.8 °F 78% 30.13 in 10.0 mi West 10.4 mph 17.3 mph N/A   Scattered Clouds
1:15 PM 68.0 °F 60.8 °F 78% 30.13 in 10.0 mi West 8.1 mph - N/A   Mostly Cloudy
1:35 PM 66.2 °F 60.8 °F 83% 30.13 in 10.0 mi West 9.2 mph - N/A   Mostly Cloudy
1:55 PM 66.2 °F 60.8 °F 83% 30.13 in 10.0 mi West 11.5 mph - N/A   Mostly Cloudy
2:15 PM 69.8 °F 60.8 °F 73% 30.13 in 10.0 mi West 11.5 mph - N/A   Scattered Clouds
2:35 PM 69.8 °F 60.8 °F 73% 30.12 in 10.0 mi West 11.5 mph - N/A   Scattered Clouds
2:55 PM 66.2 °F 60.8 °F 83% 30.12 in 10.0 mi West 8.1 mph - N/A   Mostly Cloudy
3:15 PM 69.8 °F 60.8 °F 73% 30.11 in 10.0 mi WNW 9.2 mph - N/A   Mostly Cloudy
3:35 PM 69.8 °F 60.8 °F 73% 30.11 in 10.0 mi West 10.4 mph 18.4 mph N/A   Scattered Clouds
3:55 PM 69.8 °F 60.8 °F 73% 30.11 in 10.0 mi West 11.5 mph - N/A   Scattered Clouds
4:15 PM 71.6 °F 60.8 °F 69% 30.11 in 10.0 mi WSW 11.5 mph 16.1 mph N/A   Scattered Clouds
4:35 PM 71.6 °F 60.8 °F 69% 30.10 in 10.0 mi West 11.5 mph 17.3 mph N/A   Scattered Clouds
4:55 PM 69.8 °F 60.8 °F 73% 30.11 in 10.0 mi West 10.4 mph 18.4 mph N/A   Scattered Clouds
5:15 PM 69.8 °F 60.8 °F 73% 30.11 in 10.0 mi West 10.4 mph - N/A   Scattered Clouds
5:35 PM 69.8 °F 59.0 °F 68% 30.11 in 10.0 mi West 10.4 mph - N/A   Scattered Clouds
5:55 PM 69.8 °F 57.2 °F 64% 30.11 in 10.0 mi West 12.7 mph 17.3 mph N/A   Scattered Clouds
6:15 PM 69.8 °F 57.2 °F 64% 30.11 in 10.0 mi West 12.7 mph - N/A   Clear
6:35 PM 69.8 °F 57.2 °F 64% 30.12 in 10.0 mi West 9.2 mph - N/A   Scattered Clouds
6:55 PM 68.0 °F 57.2 °F 68% 30.13 in 10.0 mi West 9.2 mph - N/A   Scattered Clouds
7:15 PM 66.2 °F 57.2 °F 73% 30.13 in 10.0 mi West 10.4 mph - N/A   Mostly Cloudy
7:35 PM 66.2 °F 57.2 °F 73% 30.13 in 10.0 mi West 9.2 mph - N/A   Mostly Cloudy
7:55 PM 66.2 °F 57.2 °F 73% 30.13 in 10.0 mi West 9.2 mph - N/A   Scattered Clouds
8:15 PM 64.4 °F 57.2 °F 77% 30.14 in 10.0 mi West 8.1 mph - N/A   Scattered Clouds
8:55 PM 64.4 °F 57.2 °F 77% 30.16 in 10.0 mi West 11.5 mph - N/A   Overcast
9:15 PM 62.6 °F 57.2 °F 82% 30.16 in 10.0 mi West 9.2 mph - N/A   Scattered Clouds
9:35 PM 62.6 °F 57.2 °F 82% 30.17 in 10.0 mi West 10.4 mph 17.3 mph N/A   Clear
9:55 PM 62.6 °F 57.2 °F 82% 30.17 in 10.0 mi WNW 11.5 mph 16.1 mph N/A   Clear
10:15 PM 60.8 °F 55.4 °F 82% 30.17 in 10.0 mi WNW 12.7 mph - N/A   Clear
10:35 PM 60.8 °F 55.4 °F 82% 30.17 in 10.0 mi West 15.0 mph - N/A   Clear
10:55 PM 60.8 °F 55.4 °F 82% 30.17 in 10.0 mi West 15.0 mph 19.6 mph N/A   Clear
11:15 PM 59.0 °F 55.4 °F 88% 30.17 in 10.0 mi WNW 12.7 mph 19.6 mph N/A   Clear
11:35 PM 57.2 °F 55.4 °F 94% 30.18 in 10.0 mi WNW 10.4 mph - N/A   Clear
11:55 PM 57.2 °F 55.4 °F 94% 30.18 in 10.0 mi WNW 11.5 mph - N/A   Clear